Hauptseite
METAR-TAF:

METAR-TAF

Flughäfen :

Flughafen Alice Springs

Alice Springs, Australien

Breite: 23-48S, Länge: 133-53E, Höhe: 545 m

Beobachtung

Neuester Wetterbericht von vor 44 Minuten, um 11:30 UTC
Wind 6 kt aus Ost/Südost
Temperatur 27°C
Luftfeuchtigkeit 13%
Luftdruck 1019 hPa
Sichtweite 10 km oder mehr

METAR: YBAS 171130Z AUTO 12006KT 9999 // NCD 27/M04 Q1019 RF00.0/000.0

Zeit: 21:44 (12:14 UTC)

Prognose

Neuester Wetterbericht von vor 1 Stunde und 7 Minuten, um 11:07 UTC
Gültige Prognose vom 17 um 12 UTC bis 18 um 12 UTC
Wind 6 kt aus Ost
Sichtweite 10 km oder mehr
keine Wolken unter 1500 m und keine Kumulonimbus oder Gewitterwolken
Ab 17 um 2300 UTC
Wind 12 kt aus Ost
Sichtweite 10 km oder mehr
keine Wolken unter 1500 m und keine Kumulonimbus oder Gewitterwolken

TAF: YBAS 171107Z 1712/1812 10006KT CAVOK FM172300 10012KT CAVOK

Wetterbeobachtungen und Prognosen von mehr als 4000 Flughäfen (METAR und TAF Bericht).

Die verfügbaren Stationen werden durch gelbe und rote Markierungen auf der Karte dargestellt.

Führen Sie die Maus auf sie, um den Namen der Station zu sehen.

Darauf klicken, um die Beobachtung von Wetterbeobachtungen und Prognosen zu sehen.

Um die Karte zu ändern : klicken Sie auf den grünen Tasten mit einem schwarzen Kreuz Zum Vergrößern, auf den grünen Button mit einem Gedankenstrich zu verkleinern, oder auf die grünen Pfeile für benachbarte Karten.


METAR-TAF: